Terminal Aerodrome Forecast
Issued by NWS Blacksburg, VA

Home | Current Version | Previous Version | Text Only | Print | Product List | Glossary On
Versions: 1 2 3 4 5 6 7 8 9 10 11 12 13 14 15 16 17 18 19 20 21 22 23 24 25
000
FTUS41 KRNK 200520
TAFROA
TAF
KROA 200520Z 2006/2106 33005KT P6SM OVC200
     FM201200 12004KT P6SM SCT030 OVC050
     FM201300 13005KT P6SM -SN BKN040
     FM201700 18005KT P6SM BKN080=

USA.gov is the U.S. government's official web portal to all federal, state and local government web resources and services.